sensor_id;sensor_type;location;lat;lon;timestamp;P1;durP1;ratioP1;P2;durP2;ratioP2
10212;SDS011;5150;51.400;6.692;2022-12-18T00:01:27;41.67;;;20.80;;
10212;SDS011;5150;51.400;6.692;2022-12-18T00:04:52;36.87;;;21.10;;
10212;SDS011;5150;51.400;6.692;2022-12-18T00:08:17;33.53;;;20.67;;
10212;SDS011;5150;51.400;6.692;2022-12-18T00:11:41;26.37;;;17.70;;
10212;SDS011;5150;51.400;6.692;2022-12-18T00:15:04;30.80;;;18.23;;
10212;SDS011;5150;51.400;6.692;2022-12-18T00:18:29;30.50;;;19.60;;
10212;SDS011;5150;51.400;6.692;2022-12-18T00:21:53;22.93;;;16.83;;
10212;SDS011;5150;51.400;6.692;2022-12-18T00:25:16;20.73;;;14.47;;
10212;SDS011;5150;51.400;6.692;2022-12-18T00:28:38;27.90;;;16.70;;
10212;SDS011;5150;51.400;6.692;2022-12-18T00:32:01;19.97;;;15.37;;
10212;SDS011;5150;51.400;6.692;2022-12-18T00:35:28;19.77;;;14.27;;
10212;SDS011;5150;51.400;6.692;2022-12-18T00:38:51;31.87;;;18.70;;
10212;SDS011;5150;51.400;6.692;2022-12-18T00:42:15;26.70;;;15.97;;
10212;SDS011;5150;51.400;6.692;2022-12-18T00:45:56;25.27;;;16.60;;
10212;SDS011;5150;51.400;6.692;2022-12-18T00:49:22;22.33;;;14.73;;
10212;SDS011;5150;51.400;6.692;2022-12-18T00:52:47;24.00;;;16.07;;
10212;SDS011;5150;51.400;6.692;2022-12-18T00:56:09;23.47;;;15.03;;
10212;SDS011;5150;51.400;6.692;2022-12-18T00:59:34;20.73;;;16.37;;
10212;SDS011;5150;51.400;6.692;2022-12-18T01:02:57;21.33;;;16.47;;
10212;SDS011;5150;51.400;6.692;2022-12-18T01:06:20;23.00;;;16.03;;
10212;SDS011;5150;51.400;6.692;2022-12-18T01:09:44;19.20;;;14.63;;
10212;SDS011;5150;51.400;6.692;2022-12-18T01:13:07;16.30;;;11.80;;
10212;SDS011;5150;51.400;6.692;2022-12-18T01:16:30;15.97;;;12.00;;
10212;SDS011;5150;51.400;6.692;2022-12-18T01:19:54;20.77;;;10.97;;
10212;SDS011;5150;51.400;6.692;2022-12-18T01:23:20;16.80;;;10.93;;
10212;SDS011;5150;51.400;6.692;2022-12-18T01:26:44;17.53;;;10.73;;
10212;SDS011;5150;51.400;6.692;2022-12-18T01:30:08;12.83;;;11.37;;
10212;SDS011;5150;51.400;6.692;2022-12-18T01:33:32;11.43;;;9.40;;
10212;SDS011;5150;51.400;6.692;2022-12-18T01:36:55;14.23;;;10.33;;
10212;SDS011;5150;51.400;6.692;2022-12-18T01:40:18;13.37;;;10.70;;
10212;SDS011;5150;51.400;6.692;2022-12-18T01:43:47;17.77;;;12.23;;
10212;SDS011;5150;51.400;6.692;2022-12-18T01:47:12;18.00;;;12.23;;
10212;SDS011;5150;51.400;6.692;2022-12-18T01:50:38;19.07;;;13.23;;
10212;SDS011;5150;51.400;6.692;2022-12-18T01:54:04;21.40;;;13.43;;
10212;SDS011;5150;51.400;6.692;2022-12-18T01:57:27;21.90;;;14.20;;
10212;SDS011;5150;51.400;6.692;2022-12-18T02:00:52;16.77;;;12.63;;
10212;SDS011;5150;51.400;6.692;2022-12-18T02:04:19;18.33;;;13.53;;
10212;SDS011;5150;51.400;6.692;2022-12-18T02:07:44;20.17;;;13.17;;
10212;SDS011;5150;51.400;6.692;2022-12-18T02:11:16;18.00;;;12.57;;
10212;SDS011;5150;51.400;6.692;2022-12-18T02:14:48;18.40;;;13.50;;
10212;SDS011;5150;51.400;6.692;2022-12-18T02:18:22;17.20;;;12.60;;
10212;SDS011;5150;51.400;6.692;2022-12-18T02:21:51;14.80;;;12.80;;
10212;SDS011;5150;51.400;6.692;2022-12-18T02:25:23;15.93;;;11.37;;
10212;SDS011;5150;51.400;6.692;2022-12-18T02:29:00;18.07;;;11.87;;
10212;SDS011;5150;51.400;6.692;2022-12-18T02:32:30;17.20;;;11.40;;
10212;SDS011;5150;51.400;6.692;2022-12-18T02:35:57;17.17;;;12.53;;
10212;SDS011;5150;51.400;6.692;2022-12-18T02:39:23;19.43;;;12.97;;
10212;SDS011;5150;51.400;6.692;2022-12-18T02:42:52;18.20;;;11.80;;
10212;SDS011;5150;51.400;6.692;2022-12-18T02:46:27;18.33;;;12.97;;
10212;SDS011;5150;51.400;6.692;2022-12-18T02:50:02;26.63;;;13.67;;
10212;SDS011;5150;51.400;6.692;2022-12-18T02:53:33;20.50;;;14.33;;
10212;SDS011;5150;51.400;6.692;2022-12-18T02:57:05;25.10;;;17.43;;
10212;SDS011;5150;51.400;6.692;2022-12-18T03:00:39;22.47;;;14.17;;
10212;SDS011;5150;51.400;6.692;2022-12-18T03:04:08;19.23;;;12.93;;
10212;SDS011;5150;51.400;6.692;2022-12-18T03:07:36;17.43;;;12.57;;
10212;SDS011;5150;51.400;6.692;2022-12-18T03:11:05;18.63;;;12.10;;
10212;SDS011;5150;51.400;6.692;2022-12-18T03:14:31;15.10;;;11.57;;
10212;SDS011;5150;51.400;6.692;2022-12-18T03:17:57;14.97;;;11.27;;
10212;SDS011;5150;51.400;6.692;2022-12-18T03:21:26;13.40;;;9.70;;
10212;SDS011;5150;51.400;6.692;2022-12-18T03:24:54;15.47;;;11.30;;
10212;SDS011;5150;51.400;6.692;2022-12-18T03:28:20;14.93;;;10.57;;
10212;SDS011;5150;51.400;6.692;2022-12-18T03:31:53;14.63;;;10.17;;
10212;SDS011;5150;51.400;6.692;2022-12-18T03:35:23;11.97;;;9.57;;
10212;SDS011;5150;51.400;6.692;2022-12-18T03:38:53;16.97;;;10.23;;
10212;SDS011;5150;51.400;6.692;2022-12-18T03:42:28;12.70;;;9.97;;
10212;SDS011;5150;51.400;6.692;2022-12-18T03:46:02;12.87;;;10.93;;
10212;SDS011;5150;51.400;6.692;2022-12-18T03:49:32;14.07;;;10.63;;
10212;SDS011;5150;51.400;6.692;2022-12-18T03:53:00;15.60;;;10.27;;
10212;SDS011;5150;51.400;6.692;2022-12-18T03:56:35;14.73;;;11.13;;
10212;SDS011;5150;51.400;6.692;2022-12-18T04:00:04;15.47;;;12.07;;
10212;SDS011;5150;51.400;6.692;2022-12-18T04:03:36;21.17;;;12.60;;
10212;SDS011;5150;51.400;6.692;2022-12-18T04:07:01;15.53;;;10.97;;
10212;SDS011;5150;51.400;6.692;2022-12-18T04:10:28;14.87;;;9.30;;
10212;SDS011;5150;51.400;6.692;2022-12-18T04:13:56;13.87;;;10.37;;
10212;SDS011;5150;51.400;6.692;2022-12-18T04:17:20;13.70;;;10.30;;
10212;SDS011;5150;51.400;6.692;2022-12-18T04:20:43;19.87;;;9.70;;
10212;SDS011;5150;51.400;6.692;2022-12-18T04:24:07;11.97;;;10.37;;
10212;SDS011;5150;51.400;6.692;2022-12-18T04:27:34;13.37;;;9.07;;
10212;SDS011;5150;51.400;6.692;2022-12-18T04:31:00;14.13;;;9.53;;
10212;SDS011;5150;51.400;6.692;2022-12-18T04:34:23;12.10;;;9.77;;
10212;SDS011;5150;51.400;6.692;2022-12-18T04:37:48;11.47;;;10.00;;
10212;SDS011;5150;51.400;6.692;2022-12-18T04:41:14;14.43;;;8.90;;
10212;SDS011;5150;51.400;6.692;2022-12-18T04:44:40;10.37;;;7.83;;
10212;SDS011;5150;51.400;6.692;2022-12-18T04:48:05;11.10;;;9.00;;
10212;SDS011;5150;51.400;6.692;2022-12-18T04:51:28;14.10;;;9.70;;
10212;SDS011;5150;51.400;6.692;2022-12-18T04:54:51;12.03;;;8.40;;
10212;SDS011;5150;51.400;6.692;2022-12-18T04:58:14;10.63;;;8.90;;
10212;SDS011;5150;51.400;6.692;2022-12-18T05:01:38;12.80;;;9.43;;
10212;SDS011;5150;51.400;6.692;2022-12-18T05:05:03;11.97;;;8.90;;
10212;SDS011;5150;51.400;6.692;2022-12-18T05:08:27;10.33;;;8.43;;
10212;SDS011;5150;51.400;6.692;2022-12-18T05:11:50;10.57;;;8.73;;
10212;SDS011;5150;51.400;6.692;2022-12-18T05:15:13;10.83;;;7.77;;
10212;SDS011;5150;51.400;6.692;2022-12-18T05:18:36;9.97;;;8.13;;
10212;SDS011;5150;51.400;6.692;2022-12-18T05:22:01;12.50;;;8.53;;
10212;SDS011;5150;51.400;6.692;2022-12-18T05:25:25;12.00;;;7.27;;
10212;SDS011;5150;51.400;6.692;2022-12-18T05:28:48;12.00;;;7.77;;
10212;SDS011;5150;51.400;6.692;2022-12-18T05:32:11;12.30;;;8.30;;
10212;SDS011;5150;51.400;6.692;2022-12-18T05:35:34;10.20;;;7.80;;
10212;SDS011;5150;51.400;6.692;2022-12-18T05:38:58;9.70;;;7.80;;
10212;SDS011;5150;51.400;6.692;2022-12-18T05:42:22;8.90;;;7.23;;
10212;SDS011;5150;51.400;6.692;2022-12-18T05:45:45;10.87;;;7.70;;
10212;SDS011;5150;51.400;6.692;2022-12-18T05:49:08;11.27;;;7.30;;
10212;SDS011;5150;51.400;6.692;2022-12-18T05:52:31;11.33;;;8.00;;
10212;SDS011;5150;51.400;6.692;2022-12-18T05:55:59;14.70;;;10.20;;
10212;SDS011;5150;51.400;6.692;2022-12-18T05:59:22;15.13;;;10.20;;
10212;SDS011;5150;51.400;6.692;2022-12-18T06:02:46;12.53;;;10.47;;
10212;SDS011;5150;51.400;6.692;2022-12-18T06:06:13;17.03;;;11.97;;
10212;SDS011;5150;51.400;6.692;2022-12-18T06:09:37;18.03;;;11.37;;
10212;SDS011;5150;51.400;6.692;2022-12-18T06:13:01;16.47;;;9.73;;
10212;SDS011;5150;51.400;6.692;2022-12-18T06:16:25;14.80;;;10.23;;
10212;SDS011;5150;51.400;6.692;2022-12-18T06:19:49;12.03;;;9.77;;
10212;SDS011;5150;51.400;6.692;2022-12-18T06:23:12;10.57;;;8.73;;
10212;SDS011;5150;51.400;6.692;2022-12-18T06:26:36;13.10;;;9.10;;
10212;SDS011;5150;51.400;6.692;2022-12-18T06:30:01;18.53;;;11.23;;
10212;SDS011;5150;51.400;6.692;2022-12-18T06:33:26;20.70;;;12.43;;
10212;SDS011;5150;51.400;6.692;2022-12-18T06:36:50;17.67;;;11.70;;
10212;SDS011;5150;51.400;6.692;2022-12-18T06:40:13;19.33;;;12.07;;
10212;SDS011;5150;51.400;6.692;2022-12-18T06:43:36;16.60;;;11.13;;
10212;SDS011;5150;51.400;6.692;2022-12-18T06:47:02;28.87;;;20.17;;
10212;SDS011;5150;51.400;6.692;2022-12-18T06:50:25;15.20;;;10.20;;
10212;SDS011;5150;51.400;6.692;2022-12-18T06:53:48;36.87;;;23.23;;
10212;SDS011;5150;51.400;6.692;2022-12-18T06:57:12;15.53;;;10.33;;
10212;SDS011;5150;51.400;6.692;2022-12-18T07:00:35;13.10;;;8.97;;
10212;SDS011;5150;51.400;6.692;2022-12-18T07:03:59;13.40;;;9.53;;
10212;SDS011;5150;51.400;6.692;2022-12-18T07:07:22;12.83;;;9.50;;
10212;SDS011;5150;51.400;6.692;2022-12-18T07:10:45;16.40;;;10.73;;
10212;SDS011;5150;51.400;6.692;2022-12-18T07:14:16;14.07;;;10.13;;
10212;SDS011;5150;51.400;6.692;2022-12-18T07:17:39;16.83;;;11.97;;
10212;SDS011;5150;51.400;6.692;2022-12-18T07:21:04;12.90;;;9.33;;
10212;SDS011;5150;51.400;6.692;2022-12-18T07:24:27;15.60;;;11.83;;
10212;SDS011;5150;51.400;6.692;2022-12-18T07:27:51;14.87;;;11.40;;
10212;SDS011;5150;51.400;6.692;2022-12-18T07:31:15;15.90;;;11.30;;
10212;SDS011;5150;51.400;6.692;2022-12-18T07:34:39;16.40;;;10.67;;
10212;SDS011;5150;51.400;6.692;2022-12-18T07:38:03;14.00;;;11.10;;
10212;SDS011;5150;51.400;6.692;2022-12-18T07:41:26;12.73;;;11.07;;
10212;SDS011;5150;51.400;6.692;2022-12-18T07:44:49;17.73;;;12.93;;
10212;SDS011;5150;51.400;6.692;2022-12-18T07:48:15;17.87;;;12.37;;
10212;SDS011;5150;51.400;6.692;2022-12-18T07:51:38;14.47;;;10.20;;
10212;SDS011;5150;51.400;6.692;2022-12-18T07:55:03;11.00;;;8.87;;
10212;SDS011;5150;51.400;6.692;2022-12-18T07:58:28;14.70;;;9.90;;
10212;SDS011;5150;51.400;6.692;2022-12-18T08:01:51;15.23;;;11.73;;
10212;SDS011;5150;51.400;6.692;2022-12-18T08:05:17;18.93;;;11.20;;
10212;SDS011;5150;51.400;6.692;2022-12-18T08:08:40;12.40;;;8.93;;
10212;SDS011;5150;51.400;6.692;2022-12-18T08:12:07;12.73;;;9.93;;
10212;SDS011;5150;51.400;6.692;2022-12-18T08:15:30;15.20;;;11.73;;
10212;SDS011;5150;51.400;6.692;2022-12-18T08:18:53;13.13;;;10.27;;
10212;SDS011;5150;51.400;6.692;2022-12-18T08:22:16;13.87;;;9.30;;
10212;SDS011;5150;51.400;6.692;2022-12-18T08:25:39;17.23;;;9.30;;
10212;SDS011;5150;51.400;6.692;2022-12-18T08:29:04;14.30;;;9.50;;
10212;SDS011;5150;51.400;6.692;2022-12-18T08:32:27;12.90;;;9.90;;
10212;SDS011;5150;51.400;6.692;2022-12-18T08:35:50;12.70;;;9.07;;
10212;SDS011;5150;51.400;6.692;2022-12-18T08:39:13;10.10;;;8.90;;
10212;SDS011;5150;51.400;6.692;2022-12-18T08:42:36;13.07;;;10.17;;
10212;SDS011;5150;51.400;6.692;2022-12-18T08:46:18;12.50;;;9.37;;
10212;SDS011;5150;51.400;6.692;2022-12-18T08:49:42;14.03;;;9.80;;
10212;SDS011;5150;51.400;6.692;2022-12-18T08:53:05;12.27;;;10.10;;
10212;SDS011;5150;51.400;6.692;2022-12-18T08:56:29;16.07;;;9.13;;
10212;SDS011;5150;51.400;6.692;2022-12-18T08:59:52;14.53;;;10.77;;
10212;SDS011;5150;51.400;6.692;2022-12-18T09:03:17;13.77;;;10.40;;
10212;SDS011;5150;51.400;6.692;2022-12-18T09:06:41;13.90;;;9.40;;
10212;SDS011;5150;51.400;6.692;2022-12-18T09:10:05;14.90;;;9.93;;
10212;SDS011;5150;51.400;6.692;2022-12-18T09:13:28;13.73;;;10.70;;
10212;SDS011;5150;51.400;6.692;2022-12-18T09:16:51;17.80;;;11.10;;
10212;SDS011;5150;51.400;6.692;2022-12-18T09:20:16;22.93;;;11.57;;
10212;SDS011;5150;51.400;6.692;2022-12-18T09:23:39;18.20;;;11.60;;
10212;SDS011;5150;51.400;6.692;2022-12-18T09:27:02;16.80;;;11.70;;
10212;SDS011;5150;51.400;6.692;2022-12-18T09:30:25;15.00;;;11.47;;
10212;SDS011;5150;51.400;6.692;2022-12-18T09:33:48;16.97;;;11.50;;
10212;SDS011;5150;51.400;6.692;2022-12-18T09:37:13;16.87;;;10.93;;
10212;SDS011;5150;51.400;6.692;2022-12-18T09:40:36;16.03;;;11.87;;
10212;SDS011;5150;51.400;6.692;2022-12-18T09:44:05;15.67;;;10.70;;
10212;SDS011;5150;51.400;6.692;2022-12-18T09:47:36;12.03;;;9.40;;
10212;SDS011;5150;51.400;6.692;2022-12-18T09:51:02;14.17;;;8.90;;
10212;SDS011;5150;51.400;6.692;2022-12-18T09:54:33;12.80;;;9.07;;
10212;SDS011;5150;51.400;6.692;2022-12-18T09:58:12;13.93;;;11.00;;
10212;SDS011;5150;51.400;6.692;2022-12-18T10:01:39;13.80;;;10.10;;
10212;SDS011;5150;51.400;6.692;2022-12-18T10:05:10;13.77;;;10.30;;
10212;SDS011;5150;51.400;6.692;2022-12-18T10:08:37;11.27;;;10.07;;
10212;SDS011;5150;51.400;6.692;2022-12-18T10:12:08;16.83;;;11.20;;
10212;SDS011;5150;51.400;6.692;2022-12-18T10:15:43;16.27;;;10.17;;
10212;SDS011;5150;51.400;6.692;2022-12-18T10:19:19;15.27;;;10.40;;
10212;SDS011;5150;51.400;6.692;2022-12-18T10:22:53;12.50;;;9.90;;
10212;SDS011;5150;51.400;6.692;2022-12-18T10:26:21;14.70;;;10.00;;
10212;SDS011;5150;51.400;6.692;2022-12-18T10:29:46;13.93;;;9.03;;
10212;SDS011;5150;51.400;6.692;2022-12-18T10:33:10;15.90;;;10.13;;
10212;SDS011;5150;51.400;6.692;2022-12-18T10:36:38;13.10;;;10.27;;
10212;SDS011;5150;51.400;6.692;2022-12-18T10:40:06;15.93;;;9.97;;
10212;SDS011;5150;51.400;6.692;2022-12-18T10:43:40;14.17;;;10.40;;
10212;SDS011;5150;51.400;6.692;2022-12-18T10:47:05;14.20;;;10.30;;
10212;SDS011;5150;51.400;6.692;2022-12-18T10:50:36;10.60;;;9.47;;
10212;SDS011;5150;51.400;6.692;2022-12-18T10:54:21;14.83;;;10.17;;
10212;SDS011;5150;51.400;6.692;2022-12-18T10:57:45;12.73;;;9.70;;
10212;SDS011;5150;51.400;6.692;2022-12-18T11:01:10;14.67;;;12.70;;
10212;SDS011;5150;51.400;6.692;2022-12-18T11:04:36;12.90;;;9.73;;
10212;SDS011;5150;51.400;6.692;2022-12-18T11:08:19;17.27;;;10.77;;
10212;SDS011;5150;51.400;6.692;2022-12-18T11:11:47;13.30;;;11.13;;
10212;SDS011;5150;51.400;6.692;2022-12-18T11:15:15;14.57;;;11.70;;
10212;SDS011;5150;51.400;6.692;2022-12-18T11:18:41;13.70;;;10.43;;
10212;SDS011;5150;51.400;6.692;2022-12-18T11:22:17;15.27;;;10.63;;
10212;SDS011;5150;51.400;6.692;2022-12-18T11:25:49;15.17;;;11.60;;
10212;SDS011;5150;51.400;6.692;2022-12-18T11:29:16;16.07;;;11.80;;
10212;SDS011;5150;51.400;6.692;2022-12-18T11:32:42;15.87;;;11.83;;
10212;SDS011;5150;51.400;6.692;2022-12-18T11:36:07;13.53;;;12.03;;
10212;SDS011;5150;51.400;6.692;2022-12-18T11:39:35;13.70;;;10.60;;
10212;SDS011;5150;51.400;6.692;2022-12-18T11:43:02;13.07;;;11.47;;
10212;SDS011;5150;51.400;6.692;2022-12-18T11:46:31;16.43;;;12.00;;
10212;SDS011;5150;51.400;6.692;2022-12-18T11:49:59;16.03;;;11.70;;
10212;SDS011;5150;51.400;6.692;2022-12-18T11:53:24;16.47;;;11.47;;
10212;SDS011;5150;51.400;6.692;2022-12-18T11:56:51;15.53;;;11.30;;
10212;SDS011;5150;51.400;6.692;2022-12-18T12:00:19;24.43;;;13.57;;
10212;SDS011;5150;51.400;6.692;2022-12-18T12:03:47;14.90;;;12.83;;
10212;SDS011;5150;51.400;6.692;2022-12-18T12:07:38;16.30;;;12.20;;
10212;SDS011;5150;51.400;6.692;2022-12-18T12:11:10;19.47;;;10.97;;
10212;SDS011;5150;51.400;6.692;2022-12-18T12:14:45;16.93;;;11.90;;
10212;SDS011;5150;51.400;6.692;2022-12-18T12:18:16;16.97;;;12.93;;
10212;SDS011;5150;51.400;6.692;2022-12-18T12:21:52;14.87;;;11.97;;
10212;SDS011;5150;51.400;6.692;2022-12-18T12:25:27;17.70;;;11.83;;
10212;SDS011;5150;51.400;6.692;2022-12-18T12:28:59;17.67;;;11.97;;
10212;SDS011;5150;51.400;6.692;2022-12-18T12:32:39;18.73;;;12.77;;
10212;SDS011;5150;51.400;6.692;2022-12-18T12:36:16;18.63;;;11.70;;
10212;SDS011;5150;51.400;6.692;2022-12-18T12:39:45;21.77;;;12.73;;
10212;SDS011;5150;51.400;6.692;2022-12-18T12:43:20;16.30;;;11.17;;
10212;SDS011;5150;51.400;6.692;2022-12-18T12:46:47;15.27;;;12.03;;
10212;SDS011;5150;51.400;6.692;2022-12-18T12:50:14;19.20;;;13.07;;
10212;SDS011;5150;51.400;6.692;2022-12-18T12:53:39;14.20;;;11.80;;
10212;SDS011;5150;51.400;6.692;2022-12-18T12:57:05;20.07;;;13.07;;
10212;SDS011;5150;51.400;6.692;2022-12-18T13:00:36;20.67;;;14.50;;
10212;SDS011;5150;51.400;6.692;2022-12-18T13:04:07;21.07;;;15.07;;
10212;SDS011;5150;51.400;6.692;2022-12-18T13:07:40;20.47;;;14.63;;
10212;SDS011;5150;51.400;6.692;2022-12-18T13:11:15;20.90;;;12.83;;
10212;SDS011;5150;51.400;6.692;2022-12-18T13:15:21;24.77;;;16.43;;
10212;SDS011;5150;51.400;6.692;2022-12-18T13:18:50;17.80;;;14.93;;
10212;SDS011;5150;51.400;6.692;2022-12-18T13:22:28;19.53;;;14.03;;
10212;SDS011;5150;51.400;6.692;2022-12-18T13:25:55;19.90;;;13.77;;
10212;SDS011;5150;51.400;6.692;2022-12-18T13:41:20;21.37;;;15.00;;
10212;SDS011;5150;51.400;6.692;2022-12-18T13:44:45;19.17;;;14.13;;
10212;SDS011;5150;51.400;6.692;2022-12-18T13:48:19;15.70;;;13.50;;
10212;SDS011;5150;51.400;6.692;2022-12-18T13:51:46;25.00;;;15.27;;
10212;SDS011;5150;51.400;6.692;2022-12-18T13:55:14;19.97;;;13.70;;
10212;SDS011;5150;51.400;6.692;2022-12-18T13:58:43;14.83;;;12.63;;
10212;SDS011;5150;51.400;6.692;2022-12-18T14:02:11;20.03;;;15.00;;
10212;SDS011;5150;51.400;6.692;2022-12-18T14:05:37;20.23;;;14.27;;
10212;SDS011;5150;51.400;6.692;2022-12-18T14:09:05;21.00;;;15.27;;
10212;SDS011;5150;51.400;6.692;2022-12-18T14:12:33;21.60;;;14.97;;
10212;SDS011;5150;51.400;6.692;2022-12-18T14:16:17;26.60;;;17.60;;
10212;SDS011;5150;51.400;6.692;2022-12-18T14:19:41;28.43;;;16.77;;
10212;SDS011;5150;51.400;6.692;2022-12-18T14:23:23;22.10;;;14.43;;
10212;SDS011;5150;51.400;6.692;2022-12-18T14:26:51;24.23;;;15.47;;
10212;SDS011;5150;51.400;6.692;2022-12-18T14:30:23;21.53;;;14.30;;
10212;SDS011;5150;51.400;6.692;2022-12-18T14:33:52;20.27;;;14.67;;
10212;SDS011;5150;51.400;6.692;2022-12-18T14:37:16;21.77;;;16.03;;
10212;SDS011;5150;51.400;6.692;2022-12-18T14:40:42;26.53;;;16.80;;
10212;SDS011;5150;51.400;6.692;2022-12-18T14:44:05;20.20;;;15.93;;
10212;SDS011;5150;51.400;6.692;2022-12-18T14:47:34;26.73;;;17.73;;
10212;SDS011;5150;51.400;6.692;2022-12-18T14:50:59;24.90;;;15.43;;
10212;SDS011;5150;51.400;6.692;2022-12-18T14:54:24;25.13;;;17.50;;
10212;SDS011;5150;51.400;6.692;2022-12-18T14:57:49;31.20;;;18.37;;
10212;SDS011;5150;51.400;6.692;2022-12-18T15:01:18;24.60;;;17.17;;
10212;SDS011;5150;51.400;6.692;2022-12-18T15:04:42;29.03;;;17.53;;
10212;SDS011;5150;51.400;6.692;2022-12-18T15:11:57;25.63;;;18.47;;
10212;SDS011;5150;51.400;6.692;2022-12-18T15:19:07;28.30;;;18.67;;
10212;SDS011;5150;51.400;6.692;2022-12-18T15:22:32;32.77;;;19.00;;
10212;SDS011;5150;51.400;6.692;2022-12-18T15:25:59;23.90;;;17.37;;
10212;SDS011;5150;51.400;6.692;2022-12-18T15:29:24;27.43;;;17.13;;
10212;SDS011;5150;51.400;6.692;2022-12-18T15:32:47;30.90;;;19.13;;
10212;SDS011;5150;51.400;6.692;2022-12-18T15:36:12;29.07;;;19.67;;
10212;SDS011;5150;51.400;6.692;2022-12-18T15:39:45;32.73;;;23.57;;
10212;SDS011;5150;51.400;6.692;2022-12-18T15:43:10;31.43;;;21.83;;
10212;SDS011;5150;51.400;6.692;2022-12-18T15:46:50;38.87;;;22.03;;
10212;SDS011;5150;51.400;6.692;2022-12-18T15:50:13;35.63;;;22.53;;
10212;SDS011;5150;51.400;6.692;2022-12-18T15:53:36;36.00;;;22.30;;
10212;SDS011;5150;51.400;6.692;2022-12-18T15:57:01;29.80;;;21.27;;
10212;SDS011;5150;51.400;6.692;2022-12-18T16:00:43;43.60;;;23.30;;
10212;SDS011;5150;51.400;6.692;2022-12-18T16:04:08;35.77;;;24.23;;
10212;SDS011;5150;51.400;6.692;2022-12-18T16:07:32;34.57;;;23.30;;
10212;SDS011;5150;51.400;6.692;2022-12-18T16:10:55;33.57;;;20.20;;
10212;SDS011;5150;51.400;6.692;2022-12-18T16:14:19;34.20;;;21.60;;
10212;SDS011;5150;51.400;6.692;2022-12-18T16:17:47;39.03;;;24.97;;
10212;SDS011;5150;51.400;6.692;2022-12-18T16:21:10;39.97;;;23.00;;
10212;SDS011;5150;51.400;6.692;2022-12-18T16:24:33;32.37;;;21.03;;
10212;SDS011;5150;51.400;6.692;2022-12-18T16:27:57;30.53;;;21.67;;
10212;SDS011;5150;51.400;6.692;2022-12-18T16:31:20;32.63;;;22.13;;
10212;SDS011;5150;51.400;6.692;2022-12-18T16:34:44;45.77;;;26.97;;
10212;SDS011;5150;51.400;6.692;2022-12-18T16:38:07;36.40;;;23.93;;
10212;SDS011;5150;51.400;6.692;2022-12-18T16:41:31;31.43;;;22.50;;
10212;SDS011;5150;51.400;6.692;2022-12-18T16:44:54;38.87;;;23.53;;
10212;SDS011;5150;51.400;6.692;2022-12-18T16:48:17;38.60;;;25.63;;
10212;SDS011;5150;51.400;6.692;2022-12-18T16:51:42;38.90;;;23.83;;
10212;SDS011;5150;51.400;6.692;2022-12-18T16:55:05;44.47;;;26.83;;
10212;SDS011;5150;51.400;6.692;2022-12-18T16:58:29;35.40;;;22.97;;
10212;SDS011;5150;51.400;6.692;2022-12-18T17:01:52;35.37;;;24.10;;
10212;SDS011;5150;51.400;6.692;2022-12-18T17:05:16;41.63;;;25.27;;
10212;SDS011;5150;51.400;6.692;2022-12-18T17:08:40;48.00;;;29.20;;
10212;SDS011;5150;51.400;6.692;2022-12-18T17:12:03;39.53;;;25.07;;
10212;SDS011;5150;51.400;6.692;2022-12-18T17:15:26;33.77;;;27.17;;
10212;SDS011;5150;51.400;6.692;2022-12-18T17:18:49;44.23;;;30.63;;
10212;SDS011;5150;51.400;6.692;2022-12-18T17:22:13;43.30;;;28.13;;
10212;SDS011;5150;51.400;6.692;2022-12-18T17:25:39;38.77;;;28.53;;
10212;SDS011;5150;51.400;6.692;2022-12-18T17:29:02;53.90;;;33.97;;
10212;SDS011;5150;51.400;6.692;2022-12-18T17:32:25;35.23;;;25.47;;
10212;SDS011;5150;51.400;6.692;2022-12-18T17:35:48;44.03;;;30.10;;
10212;SDS011;5150;51.400;6.692;2022-12-18T17:39:14;51.47;;;29.63;;
10212;SDS011;5150;51.400;6.692;2022-12-18T17:42:41;48.57;;;29.17;;
10212;SDS011;5150;51.400;6.692;2022-12-18T17:46:04;48.33;;;31.07;;
10212;SDS011;5150;51.400;6.692;2022-12-18T17:49:30;43.50;;;28.60;;
10212;SDS011;5150;51.400;6.692;2022-12-18T17:52:54;51.10;;;27.57;;
10212;SDS011;5150;51.400;6.692;2022-12-18T17:56:18;42.40;;;29.50;;
10212;SDS011;5150;51.400;6.692;2022-12-18T17:59:43;39.57;;;28.10;;
10212;SDS011;5150;51.400;6.692;2022-12-18T18:03:06;42.83;;;31.40;;
10212;SDS011;5150;51.400;6.692;2022-12-18T18:06:30;48.13;;;32.33;;
10212;SDS011;5150;51.400;6.692;2022-12-18T18:09:55;50.63;;;32.20;;
10212;SDS011;5150;51.400;6.692;2022-12-18T18:13:18;42.00;;;31.70;;
10212;SDS011;5150;51.400;6.692;2022-12-18T18:17:08;48.17;;;32.23;;
10212;SDS011;5150;51.400;6.692;2022-12-18T18:20:31;40.97;;;29.17;;
10212;SDS011;5150;51.400;6.692;2022-12-18T18:23:54;48.17;;;30.37;;
10212;SDS011;5150;51.400;6.692;2022-12-18T18:27:21;47.67;;;30.13;;
10212;SDS011;5150;51.400;6.692;2022-12-18T18:30:44;45.77;;;31.80;;
10212;SDS011;5150;51.400;6.692;2022-12-18T18:34:08;49.10;;;33.43;;
10212;SDS011;5150;51.400;6.692;2022-12-18T18:37:36;43.53;;;31.10;;
10212;SDS011;5150;51.400;6.692;2022-12-18T18:41:01;45.90;;;29.97;;
10212;SDS011;5150;51.400;6.692;2022-12-18T18:44:27;43.17;;;30.93;;
10212;SDS011;5150;51.400;6.692;2022-12-18T18:47:51;47.63;;;32.30;;
10212;SDS011;5150;51.400;6.692;2022-12-18T18:51:15;50.80;;;31.37;;
10212;SDS011;5150;51.400;6.692;2022-12-18T18:54:41;51.70;;;33.73;;
10212;SDS011;5150;51.400;6.692;2022-12-18T18:58:24;50.17;;;32.17;;
10212;SDS011;5150;51.400;6.692;2022-12-18T19:01:48;52.53;;;32.73;;
10212;SDS011;5150;51.400;6.692;2022-12-18T19:05:13;43.17;;;26.83;;
10212;SDS011;5150;51.400;6.692;2022-12-18T19:08:37;46.10;;;30.13;;
10212;SDS011;5150;51.400;6.692;2022-12-18T19:12:01;47.57;;;29.37;;
10212;SDS011;5150;51.400;6.692;2022-12-18T19:15:41;41.57;;;28.63;;
10212;SDS011;5150;51.400;6.692;2022-12-18T19:19:06;41.57;;;28.80;;
10212;SDS011;5150;51.400;6.692;2022-12-18T19:22:29;46.87;;;31.20;;
10212;SDS011;5150;51.400;6.692;2022-12-18T19:25:53;49.50;;;29.87;;
10212;SDS011;5150;51.400;6.692;2022-12-18T19:29:36;43.83;;;28.80;;
10212;SDS011;5150;51.400;6.692;2022-12-18T19:32:59;57.00;;;33.20;;
10212;SDS011;5150;51.400;6.692;2022-12-18T19:36:42;60.90;;;36.87;;
10212;SDS011;5150;51.400;6.692;2022-12-18T19:40:06;49.27;;;32.43;;
10212;SDS011;5150;51.400;6.692;2022-12-18T19:43:34;42.10;;;30.03;;
10212;SDS011;5150;51.400;6.692;2022-12-18T19:46:57;49.50;;;32.07;;
10212;SDS011;5150;51.400;6.692;2022-12-18T19:50:20;57.90;;;33.83;;
10212;SDS011;5150;51.400;6.692;2022-12-18T19:53:43;44.77;;;27.93;;
10212;SDS011;5150;51.400;6.692;2022-12-18T19:57:07;45.67;;;28.50;;
10212;SDS011;5150;51.400;6.692;2022-12-18T20:00:33;42.13;;;26.87;;
10212;SDS011;5150;51.400;6.692;2022-12-18T20:03:56;50.10;;;29.80;;
10212;SDS011;5150;51.400;6.692;2022-12-18T20:07:20;45.20;;;29.83;;
10212;SDS011;5150;51.400;6.692;2022-12-18T20:10:43;55.63;;;33.40;;
10212;SDS011;5150;51.400;6.692;2022-12-18T20:14:09;74.83;;;42.30;;
10212;SDS011;5150;51.400;6.692;2022-12-18T20:17:34;47.10;;;29.43;;
10212;SDS011;5150;51.400;6.692;2022-12-18T20:20:57;51.60;;;30.80;;
10212;SDS011;5150;51.400;6.692;2022-12-18T20:24:21;41.10;;;28.83;;
10212;SDS011;5150;51.400;6.692;2022-12-18T20:27:44;48.00;;;30.07;;
10212;SDS011;5150;51.400;6.692;2022-12-18T20:31:08;48.87;;;31.40;;
10212;SDS011;5150;51.400;6.692;2022-12-18T20:34:35;47.67;;;30.73;;
10212;SDS011;5150;51.400;6.692;2022-12-18T20:37:59;43.13;;;28.63;;
10212;SDS011;5150;51.400;6.692;2022-12-18T20:41:23;48.83;;;28.83;;
10212;SDS011;5150;51.400;6.692;2022-12-18T20:44:47;51.77;;;31.40;;
10212;SDS011;5150;51.400;6.692;2022-12-18T20:48:10;51.57;;;30.57;;